Hovedside
METAR-TAF:

METAR-TAF

Lufthavner :

Örebro, Sverige

breddegrad: 59-14N, lengdegrad: 015-03E, høyde over havet: 57 m

Gjeldene værobservasjon

Denne rapporten ble laget for 42 minutter siden, klokken 13:50 UTC
Vind 8 kt fra Øst-sørøst
Temperatur 26°C
Luftfuktighet 54%
Trykk 1012 hPa
Sikt 10 km eller mer
ingen skyer under 1500 m og ingen bygeskyer

METAR: ESOE 181350Z 12008KT CAVOK 26/16 Q1012

Tid: 16:32 (14:32 UTC)

Varsel

Denne rapporten ble laget for 2 timer og 36 minutter siden, klokken 11:56 UTC
Varsel gyldig fra 18. klokken 12 UTC til 18. klokken 21 UTC
Vind 8 kt fra Øst-nordøst
Sikt 10 km eller mer
ingen skyer under 1500 m og ingen bygeskyer
Sannsynlighet 40%
fra 18. klokken 12 UTC til 18. klokken 17 UTC
Brutte skyer i en høyde av 6000 ft, Bygeskyer.
regnbyger

TAF: ESOE 181156Z 1812/1821 07008KT CAVOK PROB40 1812/1817 SHRA BKN060CB

Værobservasjoner og værvarsel for over 4000 flyplasser (METAR- og TAF-rapporter).

Tilgjengelige stasjoner er representert av de røde og gule prikkene på kartet.

Hold musepekeren over prikken for å se navnet på stasjonen.

Klikk så for å se værobservasjoner og -varsler.

For å forandre kartet kan du klikke på den grønne knappen med svart kryss for å zoome inn, på den grønne knappen med strek for å zoome ut, eller på de grønne pilene for å se tilstøtende kart.


METAR-TAF: